createdAt,value
2022-08-16T00:02:33.004Z,7.45
2022-08-16T00:05:00.353Z,8.48
2022-08-16T00:07:29.022Z,8.55
2022-08-16T00:09:57.306Z,7.03
2022-08-16T00:12:24.624Z,5.40
2022-08-16T00:14:56.811Z,6.25
2022-08-16T00:17:25.210Z,6.47
2022-08-16T00:19:55.426Z,6.47
2022-08-16T00:22:25.041Z,6.63
2022-08-16T00:24:54.324Z,6.57
2022-08-16T00:27:22.499Z,5.75
2022-08-16T00:30:09.009Z,8.15
2022-08-16T00:32:38.798Z,8.00
2022-08-16T00:35:15.169Z,6.75
2022-08-16T00:37:58.285Z,7.45
2022-08-16T00:40:43.712Z,9.40
2022-08-16T00:43:42.725Z,8.85
2022-08-16T00:46:35.175Z,5.65
2022-08-16T00:49:17.799Z,11.40
2022-08-16T00:51:55.065Z,6.53
2022-08-16T00:54:25.355Z,6.00
2022-08-16T00:56:58.240Z,6.47
2022-08-16T00:59:29.070Z,7.90
2022-08-16T01:01:56.332Z,7.05
2022-08-16T01:04:29.878Z,7.55
2022-08-16T01:07:01.130Z,6.35
2022-08-16T01:09:34.346Z,9.25
2022-08-16T01:12:08.520Z,5.88
2022-08-16T01:14:43.603Z,7.72
2022-08-16T01:17:12.704Z,11.27
2022-08-16T01:19:51.611Z,9.40
2022-08-16T01:22:52.259Z,9.02
2022-08-16T01:25:34.469Z,6.93
2022-08-16T01:28:11.051Z,6.60
2022-08-16T01:30:52.133Z,6.95
2022-08-16T01:33:20.487Z,6.40
2022-08-16T01:36:02.618Z,7.18
2022-08-16T01:38:47.074Z,6.32
2022-08-16T01:41:21.052Z,6.53
2022-08-16T01:43:53.836Z,5.97
2022-08-16T01:46:38.203Z,6.55
2022-08-16T01:49:15.752Z,9.98
2022-08-16T01:51:47.926Z,7.45
2022-08-16T01:54:31.162Z,9.48
2022-08-16T01:56:59.633Z,12.25
2022-08-16T01:59:26.881Z,9.38
2022-08-16T02:01:59.896Z,10.13
2022-08-16T02:04:48.747Z,12.00
2022-08-16T02:07:19.010Z,11.95
2022-08-16T02:09:58.883Z,10.27
2022-08-16T02:12:49.980Z,11.43
2022-08-16T02:15:25.495Z,8.70
2022-08-16T02:17:56.319Z,9.32
2022-08-16T02:20:26.198Z,8.68
2022-08-16T02:22:56.649Z,10.38
2022-08-16T02:25:24.471Z,9.98
2022-08-16T02:27:51.679Z,10.43
2022-08-16T02:30:36.760Z,9.20
2022-08-16T02:33:11.793Z,10.02
2022-08-16T02:35:53.836Z,8.38
2022-08-16T02:38:24.172Z,8.70
2022-08-16T02:40:51.402Z,8.25
2022-08-16T02:43:21.769Z,8.13
2022-08-16T02:45:56.917Z,10.60
2022-08-16T02:48:29.282Z,9.05
2022-08-16T02:51:10.283Z,10.35
2022-08-16T02:53:43.198Z,9.10
2022-08-16T02:56:12.269Z,8.63
2022-08-16T02:58:44.184Z,8.23
2022-08-16T03:01:24.939Z,7.75
2022-08-16T03:04:39.168Z,8.25
2022-08-16T03:06:56.638Z,9.10
2022-08-16T03:09:38.567Z,9.60
2022-08-16T03:12:06.451Z,6.78
2022-08-16T03:14:34.727Z,10.15
2022-08-16T03:17:04.044Z,8.15
2022-08-16T03:19:48.319Z,8.13
2022-08-16T03:22:28.327Z,7.57
2022-08-16T03:25:02.001Z,6.80
2022-08-16T03:27:32.791Z,9.25
2022-08-16T03:30:16.565Z,7.65
2022-08-16T03:32:51.912Z,8.55
2022-08-16T03:35:33.480Z,11.40
2022-08-16T03:38:35.042Z,9.90
2022-08-16T03:40:58.529Z,6.85
2022-08-16T03:43:51.224Z,8.05
2022-08-16T03:46:47.537Z,9.65
2022-08-16T03:49:04.742Z,6.13
2022-08-16T03:51:31.451Z,7.38
2022-08-16T03:54:05.026Z,8.30
2022-08-16T03:56:57.765Z,7.80
2022-08-16T03:59:30.318Z,11.82
2022-08-16T04:02:01.562Z,8.00
2022-08-16T04:04:33.463Z,8.63
2022-08-16T04:07:05.817Z,6.60
2022-08-16T04:09:38.175Z,8.30
2022-08-16T04:12:11.121Z,8.32
2022-08-16T04:14:53.422Z,7.03
2022-08-16T04:17:21.525Z,10.07
2022-08-16T04:19:51.592Z,7.80
2022-08-16T04:22:22.721Z,11.88
2022-08-16T04:24:59.503Z,7.00
2022-08-16T04:27:32.018Z,7.70
2022-08-16T04:30:02.856Z,6.70
2022-08-16T04:32:32.237Z,10.40
2022-08-16T04:35:02.254Z,9.43
2022-08-16T04:37:42.258Z,7.35
2022-08-16T04:40:21.917Z,9.73
2022-08-16T04:42:53.280Z,8.65
2022-08-16T04:45:24.506Z,9.63
2022-08-16T04:48:08.049Z,7.90
2022-08-16T04:50:44.325Z,12.88
2022-08-16T04:53:15.709Z,7.40
2022-08-16T04:55:44.528Z,6.22
2022-08-16T04:58:43.633Z,6.72
2022-08-16T05:01:01.370Z,11.60
2022-08-16T05:03:30.932Z,8.95
2022-08-16T05:05:59.840Z,8.27
2022-08-16T05:08:34.178Z,10.80
2022-08-16T05:11:17.925Z,10.45
2022-08-16T05:13:47.522Z,9.30
2022-08-16T05:16:27.489Z,9.20
2022-08-16T05:19:11.708Z,6.15
2022-08-16T05:21:51.537Z,9.40
2022-08-16T05:24:24.549Z,8.48
2022-08-16T05:26:52.124Z,7.43
2022-08-16T05:29:20.619Z,8.77
2022-08-16T05:32:01.738Z,7.95
2022-08-16T05:34:29.756Z,8.02
2022-08-16T05:36:57.422Z,8.10
2022-08-16T05:39:33.274Z,11.52
2022-08-16T05:42:00.767Z,7.03
2022-08-16T05:44:28.465Z,12.52
2022-08-16T05:47:00.216Z,9.45
2022-08-16T05:49:38.596Z,8.68
2022-08-16T05:52:10.566Z,8.85
2022-08-16T05:54:40.072Z,6.63
2022-08-16T05:57:14.009Z,8.27
2022-08-16T05:59:42.054Z,9.30
2022-08-16T06:02:09.984Z,15.52
2022-08-16T06:04:37.992Z,8.10
2022-08-16T06:07:24.382Z,10.20
2022-08-16T06:09:59.883Z,9.23
2022-08-16T06:12:29.647Z,6.97
2022-08-16T06:15:09.641Z,7.13
2022-08-16T06:17:43.203Z,8.65
2022-08-16T06:20:23.733Z,7.00
2022-08-16T06:22:57.751Z,7.50
2022-08-16T06:25:36.474Z,7.13
2022-08-16T06:28:09.299Z,8.52
2022-08-16T06:30:43.972Z,7.95
2022-08-16T06:33:22.392Z,6.00
2022-08-16T06:35:55.334Z,8.90
2022-08-16T06:38:33.512Z,8.65
2022-08-16T06:41:13.589Z,7.28
2022-08-16T06:43:42.028Z,5.63
2022-08-16T06:46:34.014Z,6.20
2022-08-16T06:49:10.901Z,8.88
2022-08-16T06:51:45.982Z,6.45
2022-08-16T06:54:18.842Z,7.40
2022-08-16T06:56:45.788Z,12.45
2022-08-16T06:59:14.518Z,12.90
2022-08-16T07:01:53.742Z,7.25
2022-08-16T07:04:31.612Z,7.05
2022-08-16T07:07:03.015Z,7.88
2022-08-16T07:09:30.664Z,5.75
2022-08-16T07:12:03.586Z,7.80
2022-08-16T07:14:33.559Z,6.70
2022-08-16T07:17:08.434Z,6.53
2022-08-16T07:20:02.850Z,7.70
2022-08-16T07:22:50.778Z,8.18
2022-08-16T07:25:24.256Z,5.47
2022-08-16T07:27:51.724Z,9.38
2022-08-16T07:30:45.414Z,6.63
2022-08-16T07:33:15.934Z,6.20
2022-08-16T07:35:49.427Z,7.50
2022-08-16T07:38:19.867Z,6.05
2022-08-16T07:41:01.460Z,7.05
2022-08-16T07:43:30.197Z,4.78
2022-08-16T07:46:01.349Z,8.55
2022-08-16T07:48:29.648Z,4.88
2022-08-16T07:50:59.262Z,6.60
2022-08-16T07:53:31.376Z,5.10
2022-08-16T07:56:02.228Z,7.00
2022-08-16T07:58:36.430Z,6.68
2022-08-16T08:01:10.911Z,5.82
2022-08-16T08:03:49.353Z,3.10
2022-08-16T08:06:24.926Z,5.03
2022-08-16T08:08:57.171Z,4.25
2022-08-16T08:11:24.959Z,4.68
2022-08-16T08:14:02.931Z,6.35
2022-08-16T08:16:33.302Z,4.53
2022-08-16T08:19:03.302Z,4.70
2022-08-16T08:22:00.926Z,4.18
2022-08-16T08:24:32.316Z,6.00
2022-08-16T08:27:03.335Z,5.53
2022-08-16T08:29:36.855Z,5.22
2022-08-16T08:32:58.423Z,4.75
2022-08-16T08:35:03.213Z,5.95
2022-08-16T08:37:54.116Z,5.45
2022-08-16T08:40:27.630Z,5.95
2022-08-16T08:43:12.462Z,3.45
2022-08-16T08:45:55.533Z,3.38
2022-08-16T08:48:34.219Z,6.07
2022-08-16T08:51:09.211Z,8.48
2022-08-16T08:53:46.712Z,8.95
2022-08-16T08:56:29.934Z,3.63
2022-08-16T08:59:20.305Z,5.93
2022-08-16T09:01:57.639Z,5.53
2022-08-16T09:04:27.276Z,3.22
2022-08-16T09:06:55.616Z,4.97
2022-08-16T09:09:23.789Z,5.13
2022-08-16T09:12:04.415Z,7.55
2022-08-16T09:14:51.217Z,6.40
2022-08-16T09:17:45.295Z,4.70
2022-08-16T09:20:13.710Z,6.53
2022-08-16T09:22:42.432Z,7.72
2022-08-16T09:25:13.004Z,6.93
2022-08-16T09:27:57.144Z,4.05
2022-08-16T09:30:34.369Z,3.40
2022-08-16T09:33:06.798Z,5.72
2022-08-16T09:35:38.860Z,5.70
2022-08-16T09:38:08.407Z,7.00
2022-08-16T09:40:42.895Z,7.45
2022-08-16T09:43:46.395Z,3.45
2022-08-16T09:46:33.426Z,5.50
2022-08-16T09:48:56.389Z,3.58
2022-08-16T09:51:26.157Z,4.13
2022-08-16T09:53:57.687Z,7.35
2022-08-16T09:56:33.819Z,4.55
2022-08-16T09:59:04.837Z,4.65
2022-08-16T10:01:34.852Z,3.08
2022-08-16T10:04:04.566Z,4.53
2022-08-16T10:06:40.833Z,3.58
2022-08-16T10:09:15.020Z,4.03
2022-08-16T10:12:11.823Z,3.42
2022-08-16T10:14:46.438Z,3.03
2022-08-16T10:17:13.529Z,4.07
2022-08-16T10:19:41.680Z,3.50
2022-08-16T10:22:12.811Z,3.53
2022-08-16T10:24:40.643Z,5.45
2022-08-16T10:27:27.561Z,4.72
2022-08-16T10:30:24.969Z,6.55
2022-08-16T10:32:53.219Z,5.72
2022-08-16T10:35:19.918Z,2.63
2022-08-16T10:37:46.585Z,3.00
2022-08-16T10:40:28.536Z,5.68
2022-08-16T10:42:59.762Z,4.28
2022-08-16T10:45:27.399Z,7.35
2022-08-16T10:48:00.698Z,3.17
2022-08-16T10:50:31.460Z,4.32
2022-08-16T10:52:58.994Z,2.65
2022-08-16T10:55:45.377Z,3.67
2022-08-16T10:58:17.057Z,2.40
2022-08-16T11:00:46.061Z,3.25
2022-08-16T11:06:05.912Z,3.50
2022-08-16T11:08:39.681Z,2.45
2022-08-16T11:11:11.781Z,4.03
2022-08-16T11:14:06.169Z,3.03
2022-08-16T11:19:20.296Z,3.25
2022-08-16T11:24:42.345Z,3.05
2022-08-16T11:27:35.299Z,4.20
2022-08-16T11:30:04.307Z,3.65
2022-08-16T11:32:37.235Z,5.10
2022-08-16T11:35:16.120Z,4.10
2022-08-16T11:38:46.373Z,4.00
2022-08-16T11:40:46.899Z,3.60
2022-08-16T11:43:23.644Z,3.25
2022-08-16T11:45:54.245Z,3.42
2022-08-16T11:48:25.942Z,3.80
2022-08-16T11:50:53.426Z,3.80
2022-08-16T11:53:22.027Z,3.60
2022-08-16T11:55:54.730Z,4.05
2022-08-16T11:58:24.567Z,3.92
2022-08-16T12:00:53.464Z,6.65
2022-08-16T12:03:31.528Z,2.58
2022-08-16T12:06:25.438Z,4.18
2022-08-16T12:09:00.920Z,10.50
2022-08-16T12:11:31.684Z,4.72
2022-08-16T12:14:00.618Z,8.40
2022-08-16T12:16:31.426Z,4.45
2022-08-16T12:19:02.113Z,4.57
2022-08-16T12:21:57.732Z,5.35
2022-08-16T12:24:15.449Z,4.60
2022-08-16T12:26:42.725Z,5.25
2022-08-16T12:29:10.474Z,2.97
2022-08-16T12:31:37.227Z,4.35
2022-08-16T12:34:28.670Z,5.95
2022-08-16T12:36:56.254Z,2.78
2022-08-16T12:39:23.543Z,4.57
2022-08-16T12:41:56.326Z,3.38
2022-08-16T12:44:26.498Z,3.50
2022-08-16T12:47:24.281Z,3.20
2022-08-16T12:49:50.930Z,7.00
2022-08-16T12:52:33.473Z,5.38
2022-08-16T12:55:02.962Z,4.15
2022-08-16T12:57:36.631Z,5.43
2022-08-16T13:00:10.880Z,5.40
2022-08-16T13:02:37.804Z,2.85
2022-08-16T13:05:07.041Z,3.58
2022-08-16T13:07:37.547Z,3.13
2022-08-16T13:10:21.262Z,5.40
2022-08-16T13:13:01.125Z,6.03
2022-08-16T13:15:29.016Z,6.97
2022-08-16T13:17:57.802Z,5.50
2022-08-16T13:20:29.029Z,2.70
2022-08-16T13:23:06.491Z,3.05
2022-08-16T13:25:35.940Z,3.58
2022-08-16T13:28:16.812Z,4.28
2022-08-16T13:30:54.287Z,2.75
2022-08-16T13:33:31.589Z,2.58
2022-08-16T13:36:00.365Z,3.10
2022-08-16T13:38:36.464Z,3.58
2022-08-16T13:41:09.589Z,3.65
2022-08-16T13:43:37.878Z,3.03
2022-08-16T13:46:05.456Z,3.67
2022-08-16T13:48:43.317Z,3.13
2022-08-16T13:51:15.807Z,5.07
2022-08-16T13:53:45.694Z,3.13
2022-08-16T13:56:21.970Z,3.08
2022-08-16T13:58:54.551Z,5.95
2022-08-16T14:01:22.441Z,4.88
2022-08-16T14:03:50.198Z,4.10
2022-08-16T14:06:21.711Z,4.88
2022-08-16T14:08:50.291Z,2.50
2022-08-16T14:11:26.408Z,3.85
2022-08-16T14:13:55.742Z,2.50
2022-08-16T14:16:24.539Z,5.53
2022-08-16T14:19:00.713Z,4.45
2022-08-16T14:21:35.370Z,3.35
2022-08-16T14:24:07.829Z,4.00
2022-08-16T14:26:43.062Z,4.45
2022-08-16T14:29:10.598Z,3.20
2022-08-16T14:31:39.708Z,4.72
2022-08-16T14:34:07.581Z,3.78
2022-08-16T14:36:38.252Z,2.90
2022-08-16T14:39:09.214Z,3.50
2022-08-16T14:41:36.819Z,3.42
2022-08-16T14:44:06.734Z,2.67
2022-08-16T14:46:33.401Z,4.13
2022-08-16T14:49:01.778Z,4.15
2022-08-16T14:51:28.999Z,5.00
2022-08-16T14:53:56.756Z,6.57
2022-08-16T14:56:38.438Z,4.30
2022-08-16T14:59:09.016Z,3.22
2022-08-16T15:01:58.155Z,3.58
2022-08-16T15:04:37.848Z,4.57
2022-08-16T15:07:10.116Z,10.07
2022-08-16T15:09:44.576Z,5.47
2022-08-16T15:12:33.371Z,7.53
2022-08-16T15:15:01.680Z,2.65
2022-08-16T15:17:33.951Z,2.65
2022-08-16T15:20:08.786Z,7.50
2022-08-16T15:22:44.084Z,3.47
2022-08-16T15:25:29.237Z,4.68
2022-08-16T15:27:57.251Z,4.90
2022-08-16T15:30:59.371Z,6.28
2022-08-16T15:33:19.901Z,4.28
2022-08-16T15:35:49.947Z,4.47
2022-08-16T15:38:55.206Z,2.92
2022-08-16T15:41:04.954Z,6.60
2022-08-16T15:43:39.139Z,3.90
2022-08-16T15:46:35.705Z,4.63
2022-08-16T15:49:09.652Z,3.83
2022-08-16T15:51:39.163Z,3.92
2022-08-16T15:54:21.213Z,2.78
2022-08-16T15:56:54.954Z,2.65
2022-08-16T15:59:24.309Z,5.78
2022-08-16T16:01:55.933Z,2.55
2022-08-16T16:04:25.649Z,3.05
2022-08-16T16:06:55.153Z,3.42
2022-08-16T16:09:34.553Z,5.97
2022-08-16T16:12:16.262Z,5.47
2022-08-16T16:14:51.889Z,2.85
2022-08-16T16:17:18.519Z,3.75
2022-08-16T16:19:45.182Z,6.93
2022-08-16T16:22:17.335Z,3.20
2022-08-16T16:24:46.940Z,2.45
2022-08-16T16:27:14.094Z,3.00
2022-08-16T16:29:42.788Z,2.50
2022-08-16T16:32:13.626Z,3.03
2022-08-16T16:34:43.091Z,5.20
2022-08-16T16:37:10.358Z,2.42
2022-08-16T16:39:37.607Z,2.80
2022-08-16T16:42:05.314Z,5.05
2022-08-16T16:44:36.232Z,5.53
2022-08-16T16:47:04.096Z,3.65
2022-08-16T16:49:32.843Z,4.45
2022-08-16T16:52:06.577Z,3.58
2022-08-16T16:54:35.401Z,4.72
2022-08-16T16:57:02.287Z,2.53
2022-08-16T16:59:29.208Z,2.17
2022-08-16T17:02:38.585Z,3.55
2022-08-16T17:04:46.045Z,2.85
2022-08-16T17:07:14.001Z,3.95
2022-08-16T17:09:41.465Z,4.65
2022-08-16T17:12:22.665Z,8.88
2022-08-16T17:14:53.814Z,11.13
2022-08-16T17:17:20.921Z,2.50
2022-08-16T17:19:48.171Z,2.55
2022-08-16T17:22:19.814Z,2.90
2022-08-16T17:24:50.946Z,5.15
2022-08-16T17:27:37.327Z,3.97
2022-08-16T17:30:16.052Z,3.72
2022-08-16T17:32:48.725Z,2.45
2022-08-16T17:35:24.128Z,7.55
2022-08-16T17:38:04.567Z,3.70
2022-08-16T17:40:46.883Z,3.10
2022-08-16T17:43:23.455Z,3.42
2022-08-16T17:45:50.347Z,2.85
2022-08-16T17:48:17.721Z,4.95
2022-08-16T17:50:45.371Z,10.85
2022-08-16T17:53:14.090Z,3.80
2022-08-16T17:55:43.011Z,2.53
2022-08-16T17:58:23.243Z,2.85
2022-08-16T18:00:53.161Z,8.15
2022-08-16T18:04:02.360Z,4.10
2022-08-16T18:06:13.239Z,3.38
2022-08-16T18:08:41.384Z,6.50
2022-08-16T18:11:12.097Z,3.17
2022-08-16T18:13:42.785Z,2.75
2022-08-16T18:16:09.623Z,5.10
2022-08-16T18:18:36.301Z,4.80
2022-08-16T18:21:22.202Z,7.68
2022-08-16T18:23:48.859Z,7.22
2022-08-16T18:26:15.566Z,4.45
2022-08-16T18:28:42.549Z,3.67
2022-08-16T18:31:09.503Z,3.08
2022-08-16T18:33:43.303Z,2.63
2022-08-16T18:36:20.396Z,3.72
2022-08-16T18:38:49.577Z,3.92
2022-08-16T18:41:17.090Z,7.07
2022-08-16T18:44:23.867Z,4.13
2022-08-16T18:46:30.588Z,7.93
2022-08-16T18:48:57.254Z,4.20
2022-08-16T18:51:25.454Z,4.18
2022-08-16T18:53:52.895Z,3.53
2022-08-16T18:56:19.762Z,4.20
2022-08-16T18:58:46.460Z,2.60
2022-08-16T19:01:13.309Z,5.05
2022-08-16T19:03:40.202Z,5.32
2022-08-16T19:06:11.328Z,3.30
2022-08-16T19:08:41.378Z,4.32
2022-08-16T19:11:11.462Z,4.80
2022-08-16T19:13:40.337Z,4.25
2022-08-16T19:16:07.315Z,4.13
2022-08-16T19:18:36.618Z,5.65
2022-08-16T19:21:04.931Z,9.27
2022-08-16T19:23:34.329Z,3.55
2022-08-16T19:26:10.891Z,3.85
2022-08-16T19:28:58.398Z,3.38
2022-08-16T19:31:30.987Z,4.03
2022-08-16T19:33:57.999Z,3.80
2022-08-16T19:36:35.426Z,7.13
2022-08-16T19:39:08.786Z,6.35
2022-08-16T19:41:42.771Z,3.00
2022-08-16T19:44:09.942Z,3.95
2022-08-16T19:46:38.050Z,4.03
2022-08-16T19:49:05.500Z,3.58
2022-08-16T19:51:32.534Z,3.40
2022-08-16T19:53:59.491Z,5.78
2022-08-16T19:56:26.548Z,9.75
2022-08-16T19:59:18.079Z,6.80
2022-08-16T20:01:42.589Z,4.75
2022-08-16T20:04:13.394Z,4.05
2022-08-16T20:06:41.413Z,5.72
2022-08-16T20:09:08.365Z,5.60
2022-08-16T20:11:37.167Z,7.43
2022-08-16T20:14:04.236Z,5.05
2022-08-16T20:16:31.155Z,5.72
2022-08-16T20:18:57.904Z,8.48
2022-08-16T20:21:24.593Z,5.10
2022-08-16T20:23:51.438Z,10.48
2022-08-16T20:26:18.742Z,6.45
2022-08-16T20:28:54.116Z,9.32
2022-08-16T20:31:25.491Z,6.82
2022-08-16T20:33:53.094Z,4.78
2022-08-16T20:36:19.883Z,9.23
2022-08-16T20:38:47.382Z,6.40
2022-08-16T20:41:15.220Z,5.25
2022-08-16T20:43:41.915Z,5.97
2022-08-16T20:46:08.608Z,9.35
2022-08-16T20:48:35.298Z,8.57
2022-08-16T20:51:02.040Z,6.85
2022-08-16T20:53:28.733Z,8.20
2022-08-16T20:55:56.150Z,10.05
2022-08-16T20:58:22.822Z,5.47
2022-08-16T21:00:50.000Z,5.50
2022-08-16T21:03:16.679Z,9.73
2022-08-16T21:05:45.233Z,6.07
2022-08-16T21:08:51.228Z,6.53
2022-08-16T21:11:01.998Z,8.85
2022-08-16T21:13:30.700Z,5.57
2022-08-16T21:15:58.937Z,7.05
2022-08-16T21:18:26.441Z,7.60
2022-08-16T21:20:53.580Z,7.68
2022-08-16T21:23:21.302Z,7.00
2022-08-16T21:25:58.146Z,6.57
2022-08-16T21:28:41.430Z,7.82
2022-08-16T21:31:14.619Z,7.07
2022-08-16T21:33:43.044Z,9.23
2022-08-16T21:36:11.009Z,6.97
2022-08-16T21:38:38.415Z,8.15
2022-08-16T21:41:07.502Z,8.07
2022-08-16T21:43:34.739Z,10.35
2022-08-16T21:46:02.719Z,8.90
2022-08-16T21:48:34.010Z,6.03
2022-08-16T21:51:08.339Z,9.02
2022-08-16T21:53:35.914Z,11.57
2022-08-16T21:56:03.531Z,8.63
2022-08-16T21:58:30.718Z,9.02
2022-08-16T22:00:57.629Z,9.73
2022-08-16T22:03:24.608Z,8.30
2022-08-16T22:06:11.770Z,7.15
2022-08-16T22:08:46.829Z,9.88
2022-08-16T22:11:23.153Z,9.50
2022-08-16T22:13:58.987Z,6.82
2022-08-16T22:16:34.534Z,7.30
2022-08-16T22:19:02.506Z,6.03
2022-08-16T22:21:30.249Z,7.75
2022-08-16T22:23:58.853Z,8.13
2022-08-16T22:26:30.799Z,9.38
2022-08-16T22:28:59.401Z,7.07
2022-08-16T22:31:26.090Z,8.60
2022-08-16T22:33:52.841Z,6.80
2022-08-16T22:36:19.845Z,6.43
2022-08-16T22:38:54.649Z,9.07
2022-08-16T22:41:23.823Z,8.73
2022-08-16T22:43:50.495Z,9.52
2022-08-16T22:46:18.582Z,8.38
2022-08-16T22:48:45.660Z,8.80
2022-08-16T22:51:12.331Z,12.00
2022-08-16T22:53:39.092Z,12.98
2022-08-16T22:56:05.942Z,8.15
2022-08-16T22:58:36.292Z,14.98
2022-08-16T23:01:08.031Z,9.95
2022-08-16T23:03:35.906Z,14.70
2022-08-16T23:06:03.348Z,8.70
2022-08-16T23:08:33.633Z,7.72
2022-08-16T23:11:08.879Z,9.32
2022-08-16T23:13:35.569Z,10.63
2022-08-16T23:16:11.210Z,9.77
2022-08-16T23:18:39.423Z,13.23
2022-08-16T23:21:09.586Z,7.15
2022-08-16T23:23:37.346Z,10.27
2022-08-16T23:26:46.316Z,7.53
2022-08-16T23:28:52.124Z,14.48
2022-08-16T23:31:19.182Z,9.73
2022-08-16T23:33:46.974Z,11.18
2022-08-16T23:36:13.653Z,12.57
2022-08-16T23:38:40.392Z,10.68
2022-08-16T23:41:11.597Z,10.40
2022-08-16T23:43:41.676Z,14.23
2022-08-16T23:46:15.073Z,8.35
2022-08-16T23:49:56.551Z,7.22
2022-08-16T23:51:29.801Z,9.80
2022-08-16T23:53:56.531Z,9.35
2022-08-16T23:56:23.290Z,10.70
2022-08-16T23:58:54.458Z,10.50
